Time;durP1;ratioP1;P1;durP2;ratioP2;P2;SDS_P1;SDS_P2;PMS_P1;PMS_P2;Temp;Humidity;BMP_temperature;BMP_pressure;BME280_temperature;BME280_humidity;BME280_pressure;Samples;Min_cycle;Max_cycle;Signal;HPM_P1;HPM_P2
2022/04/28 00:00:19;;;;;;;10.40;5.32;;;;;;;14.86;58.08;102782.09;5082136;28;20032;-54
2022/04/28 00:02:49;;;;;;;14.38;5.25;;;;;;;14.48;59.48;102775.47;5085302;28;20033;-52
2022/04/28 00:05:15;;;;;;;12.90;5.10;;;;;;;14.53;60.18;102777.66;5075500;28;20040;-55
2022/04/28 00:07:41;;;;;;;17.83;5.97;;;;;;;14.60;59.89;102780.50;5076494;28;20075;-53
2022/04/28 00:10:08;;;;;;;14.23;5.63;;;;;;;14.65;59.61;102775.41;5090498;28;20036;-52
2022/04/28 00:12:34;;;;;;;14.57;5.75;;;;;;;14.49;60.48;102779.84;5083838;28;20040;-54
2022/04/28 00:14:59;;;;;;;13.60;5.30;;;;;;;14.51;60.09;102773.44;5082968;28;20051;-55
2022/04/28 00:17:25;;;;;;;16.40;6.63;;;;;;;14.61;59.92;102777.63;5091048;28;20028;-55
2022/04/28 00:19:51;;;;;;;15.67;6.07;;;;;;;14.37;61.07;102772.31;5078306;28;20041;-52
2022/04/28 00:22:17;;;;;;;9.13;5.00;;;;;;;14.28;61.33;102779.59;5089039;28;20273;-55
2022/04/28 00:24:43;;;;;;;;;;;;;;;14.36;61.43;102765.28;5072358;28;20037;-52
2022/04/28 00:27:08;;;;;;;15.53;5.37;;;;;;;14.27;61.68;102773.38;5081813;28;19923;-53
2022/04/28 00:29:34;;;;;;;15.52;6.10;;;;;;;14.20;62.17;102783.16;5077299;28;20039;-55
2022/04/28 00:32:01;;;;;;;17.60;6.15;;;;;;;14.28;61.86;102776.88;5091144;28;20037;-51
2022/04/28 00:34:27;;;;;;;17.00;7.07;;;;;;;14.53;60.48;102782.19;5069840;28;20068;-55
2022/04/28 00:36:52;;;;;;;17.47;6.40;;;;;;;14.45;60.69;102778.53;5067019;28;20029;-56
2022/04/28 00:39:18;;;;;;;17.20;6.13;;;;;;;14.42;60.95;102770.81;5070160;28;20033;-55
2022/04/28 00:41:44;;;;;;;15.15;6.55;;;;;;;14.35;60.83;102783.28;5081611;28;20125;-56
2022/04/28 00:44:11;;;;;;;18.38;6.25;;;;;;;14.36;61.02;102781.41;5070932;28;20033;-54
2022/04/28 00:46:43;;;;;;;15.00;7.10;;;;;;;14.15;62.30;102783.66;5078482;28;20036;-54
2022/04/28 00:51:54;;;;;;;18.55;6.45;;;;;;;14.18;62.45;102785.16;5072215;28;20048;-51
2022/04/28 00:54:22;;;;;;;16.33;7.18;;;;;;;14.07;62.95;102790.91;5087265;28;20037;-52
2022/04/28 00:56:47;;;;;;;15.73;6.55;;;;;;;14.11;62.72;102789.56;5070643;28;20106;-51
2022/04/28 00:59:13;;;;;;;11.90;6.50;;;;;;;14.01;62.99;102789.75;5065849;28;20032;-52
2022/04/28 01:01:39;;;;;;;15.35;6.68;;;;;;;14.02;63.48;102791.41;5090093;28;20070;-55
2022/04/28 01:04:06;;;;;;;16.80;7.03;;;;;;;14.00;63.37;102788.06;5077811;28;20031;-52
2022/04/28 01:06:32;;;;;;;14.07;6.03;;;;;;;13.97;63.85;102783.03;5086215;28;20029;-52
2022/04/28 01:08:58;;;;;;;17.48;7.00;;;;;;;13.80;65.37;102787.59;5085920;28;20066;-55
2022/04/28 01:11:26;;;;;;;20.73;6.73;;;;;;;13.93;64.50;102779.81;5076769;28;20111;-55
2022/04/28 01:14:01;;;;;;;;;;;;;;;13.95;64.62;102783.19;5082720;28;20056;-55
2022/04/28 01:16:31;;;;;;;13.68;5.50;;;;;;;13.96;64.34;102792.09;5081516;28;19919;-56
2022/04/28 01:18:56;;;;;;;21.73;6.60;;;;;;;13.95;64.38;102793.13;5081794;28;20108;-55
2022/04/28 01:21:22;;;;;;;17.60;5.63;;;;;;;13.90;64.68;102789.09;5088352;28;20040;-53
2022/04/28 01:23:51;;;;;;;20.55;7.15;;;;;;;13.78;65.60;102785.06;5076497;28;20060;-54
2022/04/28 01:26:18;;;;;;;21.77;6.38;;;;;;;13.83;65.34;102790.75;5087066;28;20061;-55
2022/04/28 01:28:43;;;;;;;21.75;7.90;;;;;;;13.74;65.81;102781.88;5083006;28;20036;-54
2022/04/28 01:31:09;;;;;;;20.95;7.00;;;;;;;13.79;65.36;102777.84;5081251;28;20037;-53
2022/04/28 01:33:43;;;;;;;19.42;6.63;;;;;;;13.69;65.31;102783.38;5089688;28;20041;-54
2022/04/28 01:36:13;;;;;;;18.52;7.43;;;;;;;13.69;65.57;102786.91;5078374;28;20500;-55
2022/04/28 01:38:39;;;;;;;20.13;6.63;;;;;;;13.68;65.25;102785.22;5084363;28;20041;-55
2022/04/28 01:41:06;;;;;;;12.77;6.30;;;;;;;13.55;66.29;102785.72;5085987;28;20284;-56
2022/04/28 01:43:31;;;;;;;18.77;6.73;;;;;;;13.62;65.98;102786.75;5075445;28;20041;-57
2022/04/28 01:45:57;;;;;;;18.43;7.03;;;;;;;13.58;65.78;102784.56;5068090;28;20033;-54
2022/04/28 01:48:41;;;;;;;17.73;6.45;;;;;;;13.53;65.90;102786.94;5082873;28;20082;-54
2022/04/28 01:57:14;;;;;;;17.05;7.20;;;;;;;13.48;66.80;102782.88;5082698;28;20059;-56
2022/04/28 01:59:59;;;;;;;17.73;7.30;;;;;;;13.42;67.74;102782.69;5076935;28;20070;-57
2022/04/28 02:02:39;;;;;;;18.45;7.20;;;;;;;13.42;67.72;102785.38;5084981;28;20043;-56
2022/04/28 02:05:07;;;;;;;12.70;6.35;;;;;;;13.31;68.69;102789.22;5085523;28;20056;-52
2022/04/28 02:07:33;;;;;;;20.17;6.70;;;;;;;13.45;67.55;102785.06;5076425;28;20067;-54
2022/04/28 02:09:59;;;;;;;;;;;;;;;13.33;68.54;102781.84;5060713;28;20047;-57
2022/04/28 02:12:26;;;;;;;11.90;7.00;;;;;;;13.17;69.90;102790.72;5085981;28;19916;-57
2022/04/28 02:15:14;;;;;;;18.05;6.80;;;;;;;13.11;70.20;102796.72;5073598;28;20289;-56
2022/04/28 02:18:04;;;;;;;15.65;6.55;;;;;;;13.15;70.04;102795.41;5061134;28;20028;-55
2022/04/28 02:20:31;;;;;;;20.33;7.63;;;;;;;13.21;69.75;102789.38;5085158;28;20090;-56
2022/04/28 02:22:58;;;;;;;17.70;7.50;;;;;;;13.19;69.85;102794.91;5084183;28;20422;-54
2022/04/28 02:25:25;;;;;;;24.83;7.28;;;;;;;13.17;70.47;102793.41;5077476;28;20040;-55
2022/04/28 02:27:51;;;;;;;18.92;7.03;;;;;;;13.08;71.49;102800.59;5075588;28;20060;-55
2022/04/28 02:30:19;;;;;;;20.05;7.30;;;;;;;13.12;71.19;102801.94;5086446;28;20029;-54
2022/04/28 02:35:39;;;;;;;22.50;7.22;;;;;;;13.04;72.13;102799.25;5075877;28;20057;-55
2022/04/28 02:38:05;;;;;;;13.50;6.85;;;;;;;13.01;71.94;102797.72;5089473;28;20039;-55
2022/04/28 02:40:31;;;;;;;16.73;7.80;;;;;;;13.04;72.06;102797.38;5080173;28;20066;-55
2022/04/28 02:43:00;;;;;;;15.38;7.13;;;;;;;13.01;72.52;102795.03;5081506;28;20049;-56
2022/04/28 02:45:26;;;;;;;21.35;7.25;;;;;;;12.99;72.71;102804.25;5087564;28;20150;-54
2022/04/28 02:47:55;;;;;;;19.10;7.20;;;;;;;12.97;72.71;102799.06;5075455;28;20032;-56
2022/04/28 02:50:21;;;;;;;17.55;7.28;;;;;;;12.87;73.95;102809.06;5086538;28;20040;-53
2022/04/28 02:52:49;;;;;;;19.25;7.60;;;;;;;12.94;73.59;102804.75;5083036;28;20043;-56
2022/04/28 02:55:15;;;;;;;19.27;7.07;;;;;;;12.94;73.37;102804.75;5079653;28;20051;-54
2022/04/28 02:57:41;;;;;;;17.50;8.07;;;;;;;12.99;73.25;102812.31;5089844;28;20063;-57
2022/04/28 03:00:07;;;;;;;20.73;6.70;;;;;;;13.05;72.60;102809.81;5079997;28;20031;-54
2022/04/28 03:02:47;;;;;;;19.45;7.15;;;;;;;13.09;72.36;102809.47;5086063;28;20293;-56
2022/04/28 03:05:12;;;;;;;20.30;8.33;;;;;;;12.98;72.98;102807.94;5089115;28;20052;-54
2022/04/28 03:10:49;;;;;;;18.80;6.88;;;;;;;12.91;74.68;102802.38;5087686;28;20037;-52
2022/04/28 03:13:19;;;;;;;19.25;7.15;;;;;;;13.05;73.00;102793.69;5089198;28;20036;-55
2022/04/28 03:15:48;;;;;;;16.10;7.07;;;;;;;12.67;76.17;102800.44;5078798;28;20033;-51
2022/04/28 03:18:16;;;;;;;15.60;7.32;;;;;;;12.88;74.86;102792.81;5095720;28;20039;-55
2022/04/28 03:20:43;;;;;;;23.08;7.63;;;;;;;12.88;74.90;102795.50;5086625;28;20040;-54
2022/04/28 03:23:11;;;;;;;38.38;8.68;;;;;;;12.69;76.52;102801.97;5089121;28;20039;-55
2022/04/28 03:25:37;;;;;;;20.85;7.32;;;;;;;12.55;79.27;102803.41;5079155;28;20037;-55
2022/04/28 03:28:04;;;;;;;20.45;7.65;;;;;;;12.70;77.81;102803.66;5062194;28;20032;-54
2022/04/28 03:30:30;;;;;;;18.67;7.25;;;;;;;12.72;76.89;102798.97;5087965;28;20060;-57
2022/04/28 03:33:10;;;;;;;18.35;7.30;;;;;;;12.60;78.90;102800.25;5088249;28;20028;-54
2022/04/28 03:35:36;;;;;;;16.13;7.07;;;;;;;12.68;78.11;102792.22;5079240;28;20033;-53
2022/04/28 03:38:01;;;;;;;18.27;7.43;;;;;;;12.67;78.32;102795.09;5091854;28;20032;-55
2022/04/28 03:40:30;;;;;;;18.15;7.32;;;;;;;12.65;79.08;102799.78;5082154;28;20301;-53
2022/04/28 03:42:57;;;;;;;27.60;7.68;;;;;;;12.66;78.75;102796.91;5084697;28;20044;-52
2022/04/28 03:45:24;;;;;;;13.77;8.18;;;;;;;12.55;79.45;102798.03;5078771;28;20032;-53
2022/04/28 03:47:52;;;;;;;24.38;7.40;;;;;;;12.47;80.45;102796.19;5077736;28;20029;-55
2022/04/28 03:50:19;;;;;;;;;;;;;;;12.56;80.41;102801.56;5088369;28;20063;-58
2022/04/28 03:52:44;;;;;;;22.25;7.50;;;;;;;12.51;80.80;102793.16;5083376;28;19912;-52
2022/04/28 03:55:11;;;;;;;13.32;7.63;;;;;;;12.52;81.10;102795.69;5082958;28;20068;-55
2022/04/28 03:57:37;;;;;;;18.42;8.20;;;;;;;12.54;80.88;102793.66;5091508;28;20082;-53
2022/04/28 04:00:05;;;;;;;27.20;8.23;;;;;;;12.41;81.63;102796.78;5078155;28;20029;-54
2022/04/28 04:02:31;;;;;;;28.80;9.60;;;;;;;12.27;83.33;102798.22;5088498;28;20067;-53
2022/04/28 04:04:58;;;;;;;25.95;8.55;;;;;;;12.42;82.32;102794.97;5085743;28;20149;-52
2022/04/28 04:07:32;;;;;;;17.40;8.27;;;;;;;12.55;80.65;102794.53;5080159;28;20045;-56
2022/04/28 04:10:16;;;;;;;20.25;8.00;;;;;;;12.47;81.18;102800.69;5065790;28;20050;-56
2022/04/28 04:12:46;;;;;;;15.75;7.57;;;;;;;12.39;81.98;102806.03;5085368;28;20056;-54
2022/04/28 04:15:15;;;;;;;24.85;8.02;;;;;;;12.53;80.87;102809.94;5088302;28;20048;-54
2022/04/28 04:17:57;;;;;;;22.13;7.65;;;;;;;12.40;81.55;102808.53;5077471;28;20037;-56
2022/04/28 04:20:27;;;;;;;21.08;8.13;;;;;;;12.29;82.63;102809.63;5088188;28;20116;-53
2022/04/28 04:22:53;;;;;;;27.30;8.55;;;;;;;12.38;82.40;102809.72;5084590;28;20062;-55
2022/04/28 04:25:19;;;;;;;24.05;8.73;;;;;;;12.29;82.44;102815.00;5081366;28;20037;-50
2022/04/28 04:27:49;;;;;;;20.33;7.80;;;;;;;12.30;83.03;102818.53;5058752;28;20048;-54
2022/04/28 04:33:15;;;;;;;19.27;8.18;;;;;;;12.40;81.28;102818.44;5087333;28;20051;-55
2022/04/28 04:35:41;;;;;;;21.27;8.20;;;;;;;12.42;80.95;102819.94;5077615;28;20029;-54
2022/04/28 04:38:06;;;;;;;24.20;8.10;;;;;;;12.38;81.63;102821.25;5090700;28;20119;-56
2022/04/28 04:40:33;;;;;;;30.70;9.65;;;;;;;12.31;81.68;102820.22;5082046;28;20032;-54
2022/04/28 04:43:01;;;;;;;17.85;8.23;;;;;;;12.29;82.25;102827.59;5082950;28;20047;-55
2022/04/28 04:45:27;;;;;;;23.92;8.65;;;;;;;12.29;82.14;102828.41;5088571;28;20088;-54
2022/04/28 04:48:10;;;;;;;18.55;8.40;;;;;;;12.29;82.08;102825.72;5077835;28;20021;-55
2022/04/28 04:50:40;;;;;;;20.77;7.93;;;;;;;12.39;80.84;102824.81;5085766;28;20036;-52
2022/04/28 04:53:08;;;;;;;20.02;8.32;;;;;;;12.27;82.33;102829.59;5086061;28;20064;-54
2022/04/28 04:55:39;;;;;;;17.23;7.50;;;;;;;12.28;82.69;102828.59;5078426;28;20055;-55
2022/04/28 04:58:06;;;;;;;25.30;7.97;;;;;;;12.38;81.16;102837.38;5077435;28;20047;-56
2022/04/28 05:00:33;;;;;;;19.65;7.63;;;;;;;12.48;80.76;102838.13;5087377;28;20097;-53
2022/04/28 05:03:25;;;;;;;24.88;7.63;;;;;;;12.40;81.27;102840.72;5074145;28;20047;-55
2022/04/28 05:06:09;;;;;;;24.63;8.57;;;;;;;12.58;79.85;102838.00;5058446;28;20063;-54
2022/04/28 05:08:45;;;;;;;17.85;7.85;;;;;;;12.53;79.97;102847.53;5082487;28;20137;-54
2022/04/28 05:11:12;;;;;;;21.00;7.53;;;;;;;12.58;79.53;102847.88;5081131;28;20049;-54
2022/04/28 05:13:45;;;;;;;20.15;7.15;;;;;;;12.48;79.92;102848.84;5090027;28;20100;-55
2022/04/28 05:16:13;;;;;;;20.20;8.35;;;;;;;12.50;80.13;102851.34;5077853;28;20029;-52
2022/04/28 05:19:01;;;;;;;25.30;8.85;;;;;;;12.44;80.19;102863.56;5091267;28;20040;-55
2022/04/28 05:21:41;;;;;;;20.75;7.63;;;;;;;12.55;79.16;102864.31;5076402;28;20033;-54
2022/04/28 05:24:42;;;;;;;22.58;8.30;;;;;;;12.72;77.26;102860.72;5074124;28;20051;-54
2022/04/28 05:27:26;;;;;;;22.55;8.88;;;;;;;12.73;76.69;102870.44;5064916;28;20109;-55
2022/04/28 05:29:52;;;;;;;20.47;7.43;;;;;;;12.80;76.54;102872.50;5069537;28;20045;-55
2022/04/28 05:32:37;;;;;;;16.48;7.75;;;;;;;12.79;76.38;102879.69;5072823;28;20087;-55
2022/04/28 05:35:05;;;;;;;18.58;7.53;;;;;;;12.73;77.73;102880.34;5063057;28;20056;-57
2022/04/28 05:37:31;;;;;;;19.65;7.53;;;;;;;12.88;76.55;102885.94;5072121;28;20044;-54
2022/04/28 05:39:56;;;;;;;15.30;7.13;;;;;;;12.87;76.36;102874.38;5074510;28;20088;-54
2022/04/28 05:45:41;;;;;;;20.80;8.03;;;;;;;12.80;77.19;102877.84;5072932;28;20040;-56
2022/04/28 05:47:53;;;;;;;17.42;7.25;;;;;;;13.35;72.51;102892.69;5066667;28;20049;-56
2022/04/28 05:50:18;;;;;;;23.83;7.90;;;;;;;13.37;71.96;102900.56;5061261;28;20039;-52
2022/04/28 05:52:43;;;;;;;18.63;7.30;;;;;;;13.35;72.42;102895.38;5069359;28;20033;-54
2022/04/28 05:55:09;;;;;;;25.73;7.25;;;;;;;13.37;72.49;102906.78;5073710;28;20029;-53
2022/04/28 05:57:35;;;;;;;11.65;6.40;;;;;;;13.43;71.67;102899.97;5072187;28;20036;-57
2022/04/28 06:00:00;;;;;;;18.37;7.07;;;;;;;13.45;71.46;102906.84;5071337;28;20033;-56
2022/04/28 06:02:41;;;;;;;15.23;6.35;;;;;;;13.56;71.38;102903.00;5066414;28;20033;-54
2022/04/28 06:05:15;;;;;;;19.08;6.10;;;;;;;13.55;71.06;102904.00;5076600;28;20025;-55
2022/04/28 06:07:40;;;;;;;20.55;6.43;;;;;;;13.63;71.55;102913.94;5073563;28;20056;-55
2022/04/28 06:10:06;;;;;;;25.37;7.17;;;;;;;13.81;70.35;102924.56;5059185;28;20029;-56
2022/04/28 06:12:32;;;;;;;23.75;7.30;;;;;;;13.77;69.00;102921.38;5058070;28;20080;-55
2022/04/28 06:15:11;;;;;;;22.38;6.55;;;;;;;13.67;70.19;102923.34;5060200;28;20033;-55
2022/04/28 06:17:46;;;;;;;25.13;6.53;;;;;;;13.85;68.45;102925.06;5061440;28;20025;-55
2022/04/28 06:20:12;;;;;;;10.27;5.38;;;;;;;14.09;66.64;102935.03;5069891;28;20033;-54
2022/04/28 06:23:11;;;;;;;13.60;6.07;;;;;;;14.26;65.87;102932.31;5063573;28;20044;-54
2022/04/28 06:25:42;;;;;;;12.07;5.65;;;;;;;14.15;64.20;102933.50;5068149;28;20058;-55
2022/04/28 06:28:13;;;;;;;16.92;6.45;;;;;;;14.12;64.46;102932.00;5066817;28;20017;-56
2022/04/28 06:30:43;;;;;;;16.40;6.47;;;;;;;14.28;64.39;102936.53;5068951;28;20105;-54
2022/04/28 06:33:28;;;;;;;15.07;5.20;;;;;;;14.44;63.15;102943.75;5069592;28;20066;-56
2022/04/28 06:36:02;;;;;;;22.58;5.90;;;;;;;14.31;61.51;102944.25;5081136;28;20017;-56
2022/04/28 06:38:34;;;;;;;19.70;4.93;;;;;;;14.41;58.95;102945.94;5075095;28;20037;-54
2022/04/28 06:41:01;;;;;;;16.27;5.70;;;;;;;14.55;60.23;102947.13;5075846;28;20044;-55
2022/04/28 06:43:27;;;;;;;23.45;6.13;;;;;;;14.44;60.49;102948.31;5067900;28;20049;-55
2022/04/28 06:46:12;;;;;;;13.90;5.45;;;;;;;14.39;59.98;102946.13;5070719;28;20048;-52
2022/04/28 06:48:57;;;;;;;20.58;5.80;;;;;;;14.49;59.48;102946.75;5071905;28;20083;-56
2022/04/28 06:51:43;;;;;;;14.63;5.40;;;;;;;14.82;58.97;102939.69;5075951;28;20095;-57
2022/04/28 06:54:17;;;;;;;13.80;4.78;;;;;;;14.70;58.31;102937.31;5064649;28;20029;-56
2022/04/28 06:56:44;;;;;;;18.92;5.47;;;;;;;14.74;58.77;102951.31;5074890;28;20056;-56
2022/04/28 06:59:11;;;;;;;16.88;4.82;;;;;;;14.84;57.73;102951.94;5078129;28;20036;-54
2022/04/28 07:01:43;;;;;;;17.40;5.10;;;;;;;14.90;56.03;102956.66;5077245;28;20033;-58
2022/04/28 07:04:09;;;;;;;15.85;4.68;;;;;;;14.90;56.75;102953.97;5073168;28;20029;-56
2022/04/28 07:06:35;;;;;;;14.90;4.10;;;;;;;15.13;56.01;102955.94;5077390;28;20037;-57
2022/04/28 07:09:00;;;;;;;21.88;5.35;;;;;;;15.09;56.00;102959.13;5069571;28;20282;-53
2022/04/28 07:11:27;;;;;;;12.82;4.65;;;;;;;15.21;55.58;102952.34;5082460;28;20037;-55
2022/04/28 07:14:01;;;;;;;8.35;3.25;;;;;;;15.29;55.21;102964.94;5072287;28;20549;-54
2022/04/28 07:17:02;;;;;;;11.52;4.28;;;;;;;15.11;56.38;102965.19;5071470;28;20071;-55
2022/04/28 07:19:36;;;;;;;11.43;4.13;;;;;;;15.66;54.88;102967.97;5076892;28;20040;-55
2022/04/28 07:22:05;;;;;;;12.10;3.90;;;;;;;15.34;55.24;102967.97;5069971;28;20033;-57
2022/04/28 07:24:35;;;;;;;15.88;3.78;;;;;;;15.71;54.22;102971.81;5077273;28;20033;-56
2022/04/28 07:27:02;;;;;;;12.65;3.70;;;;;;;15.78;53.10;102977.34;5066453;28;20033;-54
2022/04/28 07:29:28;;;;;;;10.57;3.75;;;;;;;15.48;52.81;102985.25;5063723;28;20033;-56
2022/04/28 07:32:05;;;;;;;9.43;4.00;;;;;;;15.60;53.14;102983.84;5075445;28;20029;-56
2022/04/28 07:35:00;;;;;;;16.88;4.22;;;;;;;15.84;52.52;102994.69;5056797;28;20056;-55
2022/04/28 07:37:44;;;;;;;13.20;4.18;;;;;;;15.80;52.64;102993.34;5073110;28;20067;-56
2022/04/28 07:40:29;;;;;;;15.88;4.22;;;;;;;15.90;52.77;102994.81;5074733;28;20051;-59
2022/04/28 07:42:58;;;;;;;13.10;4.45;;;;;;;15.91;52.17;103001.91;5047017;28;20033;-55
2022/04/28 07:45:24;;;;;;;11.50;4.63;;;;;;;15.85;51.65;103002.59;5075303;28;20071;-56
2022/04/28 07:47:50;;;;;;;11.20;3.58;;;;;;;16.01;51.17;103004.38;5068033;28;20041;-54
2022/04/28 07:50:23;;;;;;;10.48;3.40;;;;;;;16.25;50.76;103004.38;5065414;28;20084;-56
2022/04/28 07:52:53;;;;;;;10.70;3.83;;;;;;;16.03;51.47;103013.16;5082977;28;20036;-56
2022/04/28 07:55:20;;;;;;;10.73;4.40;;;;;;;16.16;50.24;103020.66;5058348;28;20040;-58
2022/04/28 07:57:49;;;;;;;12.02;4.13;;;;;;;16.45;49.48;103019.06;5071868;28;20036;-57
2022/04/28 08:00:22;;;;;;;13.52;4.30;;;;;;;16.37;49.78;103021.81;5071486;28;20128;-57
2022/04/28 08:02:52;;;;;;;15.48;4.18;;;;;;;16.29;49.49;103025.44;5074487;28;20025;-53
2022/04/28 08:05:23;;;;;;;13.88;4.55;;;;;;;16.46;49.61;103028.00;5073104;28;20550;-57
2022/04/28 08:07:48;;;;;;;8.52;2.45;;;;;;;16.72;46.82;103024.91;5071217;28;20029;-56
2022/04/28 08:10:14;;;;;;;15.00;4.32;;;;;;;16.73;48.10;103023.06;5064072;28;20033;-56
2022/04/28 08:12:40;;;;;;;14.55;4.57;;;;;;;16.84;48.19;103027.16;5073013;28;20047;-56
2022/04/28 08:15:29;;;;;;;16.75;4.55;;;;;;;16.92;48.01;103032.50;5069170;28;20044;-57
2022/04/28 08:17:54;;;;;;;8.80;3.27;;;;;;;17.03;46.47;103037.47;5072012;28;20037;-55
2022/04/28 08:20:20;;;;;;;12.57;3.78;;;;;;;16.39;48.07;103030.59;5072591;28;20112;-53
2022/04/28 08:22:46;;;;;;;7.35;2.88;;;;;;;17.05;46.91;103032.69;5063940;28;20021;-55
2022/04/28 08:25:11;;;;;;;6.33;2.37;;;;;;;17.09;46.54;103037.75;5066429;28;20037;-58
2022/04/28 08:27:38;;;;;;;10.02;4.15;;;;;;;17.25;46.51;103034.03;5067981;28;20033;-55
2022/04/28 08:30:05;;;;;;;7.50;3.20;;;;;;;17.54;45.75;103026.91;5067316;28;20064;-57
2022/04/28 08:32:31;;;;;;;12.13;3.85;;;;;;;17.55;45.58;103029.44;5071323;28;20040;-54
2022/04/28 08:34:57;;;;;;;9.52;3.53;;;;;;;17.68;45.55;103028.78;5073783;28;20060;-57
2022/04/28 08:37:22;;;;;;;9.82;3.70;;;;;;;17.24;46.08;103035.06;5060630;28;20056;-56
2022/04/28 08:39:48;;;;;;;12.13;3.37;;;;;;;17.63;45.36;103023.91;5066241;28;20029;-56
2022/04/28 08:42:16;;;;;;;15.65;4.07;;;;;;;17.72;45.46;103026.50;5068347;28;20052;-52
2022/04/28 08:45:05;;;;;;;10.67;3.73;;;;;;;18.01;44.92;103022.06;5079002;28;20115;-57
2022/04/28 08:47:36;;;;;;;12.23;4.10;;;;;;;17.91;44.85;103019.66;5066131;28;20302;-53
2022/04/28 08:50:21;;;;;;;12.70;4.07;;;;;;;18.28;44.11;103025.88;5062120;28;20281;-55
2022/04/28 08:53:00;;;;;;;10.87;3.87;;;;;;;18.13;43.87;103028.66;5084953;28;20277;-56
2022/04/28 08:55:32;;;;;;;7.03;3.27;;;;;;;18.49;43.49;103026.91;5081868;28;20273;-53
2022/04/28 08:57:58;;;;;;;6.87;3.23;;;;;;;18.04;43.96;103043.34;5090032;28;20264;-57
2022/04/28 09:00:24;;;;;;;12.93;4.07;;;;;;;18.36;43.69;103040.34;5078980;28;20647;-57
2022/04/28 09:03:09;;;;;;;13.33;3.50;;;;;;;18.87;42.60;103033.84;5083765;28;20051;-58
2022/04/28 09:05:55;;;;;;;10.27;3.80;;;;;;;18.88;42.11;103028.25;5091191;28;20293;-52
2022/04/28 09:08:58;;;;;;;13.87;4.40;;;;;;;19.02;42.36;103022.94;5042797;28;20301;-55
2022/04/28 09:11:58;;;;;;;11.00;4.37;;;;;;;19.46;41.64;103037.97;5018049;28;20287;-55
2022/04/28 09:14:46;;;;;;;8.77;3.50;;;;;;;19.29;42.01;103029.34;5064418;28;20275;-55
2022/04/28 09:17:17;;;;;;;10.73;4.27;;;;;;;20.05;40.71;103021.28;5073323;28;20266;-58
2022/04/28 09:19:45;;;;;;;9.93;3.60;;;;;;;20.38;40.50;103025.06;5065169;28;20325;-58
2022/04/28 09:22:22;;;;;;;8.43;4.00;;;;;;;20.51;39.47;103035.09;5057923;28;20024;-57
2022/04/28 09:24:47;;;;;;;9.07;3.40;;;;;;;21.51;37.82;103033.25;5081016;28;20361;-59
2022/04/28 09:27:21;;;;;;;10.53;3.67;;;;;;;21.77;36.81;103027.72;5077755;28;20274;-58
2022/04/28 09:29:48;;;;;;;12.17;3.67;;;;;;;22.73;35.58;103018.63;5069153;28;20284;-58
2022/04/28 09:32:15;;;;;;;;;;;;;;;23.29;34.45;103035.06;5089466;28;20032;-57
2022/04/28 09:35:13;;;;;;;8.70;3.67;;;;;;;23.90;33.65;103031.56;5070592;28;19992;-56
2022/04/28 09:37:58;;;;;;;8.07;2.90;;;;;;;24.76;32.54;103028.50;5089421;28;20066;-58
2022/04/28 09:43:08;;;;;;;11.13;3.70;;;;;;;26.01;30.06;103020.00;5083403;28;20067;-56
2022/04/28 09:45:38;;;;;;;9.70;3.13;;;;;;;25.90;29.70;103029.97;5080948;28;20056;-56
2022/04/28 09:48:05;;;;;;;9.90;2.97;;;;;;;25.63;30.07;103031.44;5076657;28;20093;-57
2022/04/28 09:50:40;;;;;;;7.57;2.97;;;;;;;26.82;28.49;103026.22;5086618;28;20446;-55
2022/04/28 09:53:20;;;;;;;12.83;3.83;;;;;;;27.45;27.79;103023.16;5085136;28;20043;-57
2022/04/28 09:56:06;;;;;;;8.60;3.38;;;;;;;27.96;26.56;103025.63;5074804;28;20071;-57
2022/04/28 09:58:55;;;;;;;8.87;3.30;;;;;;;28.37;25.96;103030.66;5076755;28;20055;-57
2022/04/28 10:01:21;;;;;;;;;;;;;;;28.43;25.70;103029.63;5080313;28;20037;-58
2022/04/28 10:03:47;;;;;;;9.70;3.23;;;;;;;28.37;25.86;103030.66;5088687;28;20260;-58
2022/04/28 10:06:17;;;;;;;11.30;3.67;;;;;;;29.01;25.11;103022.53;5070047;28;20037;-59
2022/04/28 10:08:46;;;;;;;9.77;3.50;;;;;;;29.24;24.71;103034.19;5077164;28;20067;-58
2022/04/28 10:11:19;;;;;;;10.50;3.70;;;;;;;29.07;24.91;103023.38;5086921;28;20033;-58
2022/04/28 10:13:47;;;;;;;9.73;4.10;;;;;;;29.28;24.98;103019.56;5080768;28;20101;-57
2022/04/28 10:16:16;;;;;;;9.33;3.40;;;;;;;29.11;24.83;103016.22;5087034;28;20024;-60
2022/04/28 10:18:58;;;;;;;8.20;2.93;;;;;;;29.11;24.99;103016.22;5060517;28;20040;-58
2022/04/28 10:21:31;;;;;;;8.30;3.27;;;;;;;29.82;23.97;103016.69;5060403;28;20040;-59
2022/04/28 10:32:58;;;;;;;11.65;4.03;;;;;;;31.05;23.12;103009.31;5067873;28;20036;-58
2022/04/28 10:35:41;;;;;;;9.27;3.88;;;;;;;31.53;21.84;103006.00;5063386;28;20025;-58
2022/04/28 10:38:38;;;;;;;12.07;3.47;;;;;;;31.60;21.99;102995.47;5061483;28;20037;-60
2022/04/28 10:41:06;;;;;;;11.98;4.03;;;;;;;31.62;21.77;103003.47;5062023;28;20060;-59
2022/04/28 10:43:32;;;;;;;11.23;3.63;;;;;;;31.11;22.20;103007.34;5061499;28;20088;-57
2022/04/28 10:46:22;;;;;;;9.13;3.47;;;;;;;32.13;21.50;103005.00;5066567;28;20038;-59
2022/04/28 10:48:52;;;;;;;13.32;4.15;;;;;;;32.32;20.98;103009.81;5063409;28;20108;-59
2022/04/28 10:51:29;;;;;;;13.35;3.88;;;;;;;32.55;21.42;103010.16;5065473;28;20033;-59
2022/04/28 10:54:09;;;;;;;9.35;3.30;;;;;;;33.31;20.33;103003.91;5068681;28;20030;-59
2022/04/28 10:56:41;;;;;;;10.75;4.25;;;;;;;33.85;19.77;103004.44;5063495;28;20033;-59
2022/04/28 10:59:25;;;;;;;8.38;3.05;;;;;;;34.02;19.88;103011.41;5062897;28;20037;-59
2022/04/28 11:01:51;;;;;;;8.48;2.92;;;;;;;34.16;19.61;103003.94;5063203;28;20057;-60
2022/04/28 11:04:22;;;;;;;11.10;3.60;;;;;;;34.08;19.48;103007.41;5073377;28;20028;-59
2022/04/28 11:06:54;;;;;;;8.38;3.33;;;;;;;34.56;18.58;103006.25;5064176;28;20052;-58
2022/04/28 11:09:34;;;;;;;9.73;3.45;;;;;;;34.74;18.46;103007.28;5065288;28;20096;-60
2022/04/28 11:12:11;;;;;;;11.25;3.17;;;;;;;35.77;18.30;103003.31;5092667;28;20044;-59
2022/04/28 11:14:59;;;;;;;9.48;3.90;;;;;;;35.72;17.64;102995.91;5082288;28;20037;-60
2022/04/28 11:17:28;;;;;;;15.25;4.88;;;;;;;35.19;18.04;103000.22;5083748;28;20040;-59
2022/04/28 11:19:54;;;;;;;9.05;3.00;;;;;;;35.53;17.44;102998.88;5072950;28;20037;-59
2022/04/28 11:22:21;;;;;;;9.30;3.20;;;;;;;36.03;17.56;102994.31;5092441;28;20092;-57
2022/04/28 11:24:48;;;;;;;7.40;3.47;;;;;;;36.63;17.31;102997.63;5082909;28;20092;-58
2022/04/28 11:27:30;;;;;;;8.63;3.10;;;;;;;36.56;16.89;102994.53;5076160;28;20041;-59
2022/04/28 11:30:14;;;;;;;6.35;2.70;;;;;;;36.61;17.00;102996.34;5077123;28;20033;-61
2022/04/28 11:32:53;;;;;;;13.75;3.50;;;;;;;36.89;16.91;102996.88;5090053;28;20116;-63
2022/04/28 11:35:19;;;;;;;10.23;3.10;;;;;;;37.42;16.08;102997.72;5087510;28;20054;-60
2022/04/28 11:37:46;;;;;;;8.52;2.92;;;;;;;37.77;15.85;102996.06;5070172;28;20039;-60
2022/04/28 11:40:16;;;;;;;8.82;3.30;;;;;;;37.71;15.59;102987.03;5091960;28;20032;-60
2022/04/28 11:42:42;;;;;;;12.75;3.03;;;;;;;37.84;15.28;102994.41;5077637;28;20092;-59
2022/04/28 11:45:08;;;;;;;7.05;2.50;;;;;;;38.41;15.40;103000.75;5085682;28;20107;-59
2022/04/28 11:47:45;;;;;;;7.57;2.83;;;;;;;38.57;14.87;103005.81;5081841;28;20033;-60
2022/04/28 11:50:22;;;;;;;9.57;2.65;;;;;;;38.87;15.09;102994.56;5092168;28;20056;-60
2022/04/28 11:53:12;;;;;;;8.32;3.45;;;;;;;38.31;15.10;102998.34;5082705;28;20105;-60
2022/04/28 11:55:40;;;;;;;8.95;3.00;;;;;;;38.06;15.58;102997.31;5080977;28;20032;-61
2022/04/28 11:58:08;;;;;;;6.60;3.70;;;;;;;38.95;15.99;102995.69;5076989;28;20041;-60
2022/04/28 12:00:42;;;;;;;8.73;3.00;;;;;;;38.32;14.91;102994.41;5085187;28;20033;-60
2022/04/28 12:03:08;;;;;;;8.68;4.10;;;;;;;39.07;16.00;102997.75;5079732;28;20063;-60
2022/04/28 12:05:34;;;;;;;11.55;4.38;;;;;;;37.99;16.20;103000.59;5074209;28;20048;-60
2022/04/28 12:08:01;;;;;;;7.60;3.22;;;;;;;38.72;16.44;102985.63;5068876;28;20055;-59
2022/04/28 12:16:08;;;;;;;9.85;3.50;;;;;;;40.26;15.19;102981.50;5064433;28;20022;-59